Time;durP1;ratioP1;P1;durP2;ratioP2;P2;SDS_P1;SDS_P2;PMS_P1;PMS_P2;Temp;Humidity;BMP_temperature;BMP_pressure;BME280_temperature;BME280_humidity;BME280_pressure;Samples;Min_cycle;Max_cycle;Signal;HPM_P1;HPM_P2
2023/11/07 00:00:45;;;;;;;2.27;1.07;;;8.00;92.50;;;9.66;63.91;97236.66;5010761;28;20045;-64
2023/11/07 00:03:13;;;;;;;1.67;1.30;;;8.00;92.40;;;9.63;63.71;97236.16;5010426;28;20422;-64
2023/11/07 00:05:40;;;;;;;1.67;1.17;;;8.00;91.90;;;9.65;63.76;97243.00;5011041;28;20050;-64
2023/11/07 00:08:08;;;;;;;1.67;1.00;;;8.00;92.00;;;9.71;63.72;97240.66;5010834;28;20045;-64
2023/11/07 00:10:37;;;;;;;1.23;0.90;;;8.00;91.60;;;9.70;63.62;97242.47;5009825;28;20061;-64
2023/11/07 00:13:05;;;;;;;2.20;1.03;;;7.90;92.10;;;9.65;63.49;97242.13;5010366;28;20053;-63
2023/11/07 00:15:33;;;;;;;1.40;1.00;;;7.90;92.10;;;9.67;63.38;97240.13;5013614;28;20050;-64
2023/11/07 00:18:00;;;;;;;2.00;1.00;;;7.90;92.00;;;9.68;63.34;97241.00;5014491;28;20056;-63
2023/11/07 00:20:28;;;;;;;1.97;1.00;;;7.80;91.90;;;9.65;63.48;97245.66;5014510;28;20053;-64
2023/11/07 00:22:57;;;;;;;1.10;0.90;;;7.80;92.30;;;9.53;63.51;97244.28;5013199;28;20046;-64
2023/11/07 00:25:27;;;;;;;2.00;0.90;;;7.70;92.70;;;9.52;63.96;97237.31;5014446;28;20506;-63
2023/11/07 00:27:55;;;;;;;3.03;1.20;;;7.70;92.80;;;9.55;63.71;97247.59;5014356;28;20057;-64
2023/11/07 00:30:23;;;;;;;1.63;1.10;;;7.70;93.20;;;9.56;63.45;97249.28;5013027;28;20053;-64
2023/11/07 00:32:53;;;;;;;2.30;1.20;;;7.80;92.80;;;9.50;63.49;97246.44;4996426;28;20057;-64
2023/11/07 00:35:21;;;;;;;0.90;0.90;;;7.70;92.60;;;9.53;63.53;97248.78;5013983;28;20392;-64
2023/11/07 00:37:51;;;;;;;2.73;1.13;;;7.70;92.60;;;9.53;63.56;97243.47;5012889;28;20042;-64
2023/11/07 00:40:18;;;;;;;2.47;0.80;;;7.70;92.90;;;9.49;63.66;97244.78;5012828;28;20049;-63
2023/11/07 00:42:46;;;;;;;2.03;0.90;;;7.70;92.60;;;9.50;63.78;97252.59;5013816;28;20042;-63
2023/11/07 00:45:14;;;;;;;1.03;0.90;;;7.70;93.00;;;9.53;63.80;97249.59;5014182;28;20537;-64
2023/11/07 00:47:42;;;;;;;1.13;0.80;;;7.70;92.60;;;9.51;63.31;97251.59;5012804;28;20050;-63
2023/11/07 00:50:10;;;;;;;2.80;1.30;;;7.70;92.60;;;9.49;63.72;97248.28;5012703;28;20058;-64
2023/11/07 00:52:40;;;;;;;2.73;1.00;;;7.70;93.10;;;9.44;63.32;97253.22;5012356;28;20061;-64
2023/11/07 00:55:09;;;;;;;0.90;0.90;;;7.60;92.90;;;9.43;63.82;97255.06;5013902;28;20046;-64
2023/11/07 00:57:36;;;;;;;1.40;1.10;;;7.60;93.60;;;9.46;63.86;97249.44;5012475;28;20049;-64
2023/11/07 01:00:05;;;;;;;1.43;1.10;;;7.70;93.00;;;9.47;63.97;97255.56;5012434;28;20045;-63
2023/11/07 01:02:33;;;;;;;4.07;1.20;;;7.70;93.50;;;9.52;63.70;97250.63;5013606;28;20049;-64
2023/11/07 01:05:01;;;;;;;0.83;0.63;;;7.70;93.20;;;9.50;63.46;97254.41;5011777;28;20061;-64
2023/11/07 01:07:29;;;;;;;2.23;1.13;;;7.60;92.80;;;9.48;63.72;97259.06;5013657;28;20050;-64
2023/11/07 01:09:56;;;;;;;1.63;1.20;;;7.60;93.20;;;9.42;63.71;97252.56;5012373;28;20057;-64
2023/11/07 01:12:24;;;;;;;2.00;0.93;;;7.60;93.10;;;9.38;63.58;97254.75;5012043;28;20042;-64
2023/11/07 01:14:52;;;;;;;1.77;1.20;;;7.60;93.20;;;9.38;64.00;97253.88;5013533;28;20411;-64
2023/11/07 01:17:19;;;;;;;1.80;1.00;;;7.50;93.80;;;9.41;63.62;97248.25;4995667;28;20042;-64
2023/11/07 01:19:47;;;;;;;1.53;0.80;;;7.60;94.90;;;9.38;63.80;97262.72;5012116;28;20046;-63
2023/11/07 01:22:14;;;;;;;0.90;0.90;;;7.60;93.00;;;9.35;64.04;97257.72;5009019;28;20050;-64
2023/11/07 01:24:42;;;;;;;1.83;0.90;;;7.50;94.00;;;9.33;64.00;97258.88;4992260;28;20401;-63
2023/11/07 01:27:10;;;;;;;1.83;1.00;;;7.50;93.50;;;9.29;63.74;97266.34;5010362;28;20053;-63
2023/11/07 01:29:37;;;;;;;1.30;1.17;;;7.50;94.00;;;9.32;63.77;97268.66;5011897;28;20418;-64
2023/11/07 01:32:06;;;;;;;1.80;0.93;;;7.50;93.60;;;9.32;64.06;97263.34;5012935;28;20054;-63
2023/11/07 01:34:33;;;;;;;2.20;1.27;;;7.60;93.60;;;9.37;63.97;97262.88;5011706;28;20502;-64
2023/11/07 01:37:02;;;;;;;2.60;1.00;;;7.60;93.90;;;9.39;63.91;97258.22;5011551;28;20057;-63
2023/11/07 01:39:30;;;;;;;3.93;0.90;;;7.60;92.90;;;9.36;64.12;97263.84;5013098;28;20519;-63
2023/11/07 01:41:58;;;;;;;1.90;1.10;;;7.60;93.10;;;9.34;63.58;97264.00;5012625;28;20044;-64
2023/11/07 01:44:29;;;;;;;1.70;1.00;;;7.50;93.20;;;9.36;63.86;97261.19;5011501;28;20049;-63
2023/11/07 01:46:58;;;;;;;1.90;0.90;;;7.50;93.70;;;9.34;63.78;97264.00;5011124;28;20050;-63
2023/11/07 01:49:27;;;;;;;2.20;1.93;;;7.50;93.70;;;9.37;63.74;97262.88;5011348;28;20050;-63
2023/11/07 01:51:59;;;;;;;1.20;0.80;;;7.50;93.40;;;9.36;63.66;97271.81;5010965;28;20408;-64
2023/11/07 01:54:27;;;;;;;1.47;1.00;;;7.50;93.30;;;9.34;63.79;97264.00;5005683;28;20045;-64
2023/11/07 01:56:55;;;;;;;1.07;0.80;;;7.50;93.60;;;9.31;63.76;97266.19;5012978;28;20049;-63
2023/11/07 01:59:24;;;;;;;2.23;1.27;;;7.50;93.60;;;9.34;63.85;97260.53;5019456;28;20057;-64
2023/11/07 02:01:58;;;;;;;2.37;0.80;;;7.50;93.30;;;9.35;64.07;97263.03;5011246;28;20034;-64
2023/11/07 02:04:25;;;;;;;2.05;1.02;;;7.60;93.50;;;9.36;63.93;97262.00;5005101;28;20050;-63
2023/11/07 02:06:53;;;;;;;3.23;0.90;;;7.70;93.10;;;9.39;64.22;97252.91;5012717;28;20045;-63
2023/11/07 02:09:22;;;;;;;3.33;1.20;;;7.70;93.50;;;9.44;63.92;97256.75;5012563;28;20038;-64
2023/11/07 02:11:50;;;;;;;1.93;1.10;;;7.70;93.30;;;9.45;64.15;97262.88;5010855;28;20065;-64
2023/11/07 02:14:36;;;;;;;1.90;1.20;;;7.60;92.70;;;9.46;64.17;97257.41;4994904;28;20054;-64
2023/11/07 02:17:04;;;;;;;1.43;0.97;;;7.70;92.90;;;9.49;63.93;97256.25;4995349;28;20061;-64
2023/11/07 02:19:32;;;;;;;1.70;1.30;;;7.70;93.30;;;9.51;63.94;97259.56;4995158;28;20502;-63
2023/11/07 02:22:01;;;;;;;4.43;1.20;;;7.70;93.10;;;9.52;63.72;97261.25;5010637;28;20049;-64
2023/11/07 02:24:29;;;;;;;2.30;1.47;;;7.70;93.10;;;9.55;63.83;97255.56;5012394;28;20194;-63
2023/11/07 02:26:58;;;;;;;1.93;1.10;;;7.70;92.60;;;9.54;63.57;97255.72;5010358;28;20034;-64
2023/11/07 02:29:26;;;;;;;1.40;1.00;;;7.70;92.50;;;9.50;63.42;97246.44;5010792;28;20046;-64
2023/11/07 02:31:54;;;;;;;3.73;1.30;;;7.60;92.20;;;9.45;63.31;97246.94;5010668;28;20506;-64
2023/11/07 02:34:22;;;;;;;1.50;1.00;;;7.60;92.70;;;9.44;63.52;97247.91;5010582;28;20061;-64
2023/11/07 02:36:50;;;;;;;1.13;1.00;;;7.50;92.70;;;9.39;63.63;97256.38;5010025;28;20394;-63
2023/11/07 02:39:17;;;;;;;1.90;0.83;;;7.50;93.00;;;9.35;63.39;97254.22;5011889;28;20053;-63
2023/11/07 02:41:45;;;;;;;3.17;1.10;;;7.40;92.50;;;9.35;63.24;97252.41;5026197;28;20041;-64
2023/11/07 02:44:13;;;;;;;7.63;1.20;;;7.40;93.00;;;9.29;63.28;97254.88;5011939;28;20447;-63
2023/11/07 02:46:41;;;;;;;1.53;1.10;;;7.40;92.80;;;9.29;63.33;97257.53;5010646;28;20046;-63
2023/11/07 02:49:10;;;;;;;2.50;1.87;;;7.40;93.40;;;9.30;63.21;97261.84;5010823;28;20517;-63
2023/11/07 02:51:38;;;;;;;1.67;1.00;;;7.40;93.00;;;9.30;63.25;97256.53;5011192;28;20057;-64
2023/11/07 02:54:06;;;;;;;2.10;1.03;;;7.30;92.90;;;9.30;63.08;97254.69;5011856;28;20042;-63
2023/11/07 02:56:34;;;;;;;2.13;1.30;;;7.40;92.90;;;9.28;63.07;97259.34;5010134;28;20050;-63
2023/11/07 02:59:02;;;;;;;2.33;1.17;;;7.30;92.50;;;9.25;63.35;97257.03;5010027;28;20504;-63
2023/11/07 03:01:31;;;;;;;2.03;1.17;;;7.30;92.60;;;9.25;63.24;97243.75;5009744;28;20041;-63
2023/11/07 03:03:58;;;;;;;1.00;0.90;;;7.30;92.80;;;9.28;63.33;97246.06;5026260;28;20423;-63
2023/11/07 03:06:26;;;;;;;1.73;1.23;;;7.30;93.10;;;9.27;63.12;97239.94;5009875;28;20053;-64
2023/11/07 03:08:55;;;;;;;3.17;1.00;;;7.40;92.00;;;9.26;63.15;97234.78;5010209;28;20044;-63
2023/11/07 03:11:23;;;;;;;1.87;1.17;;;7.40;92.00;;;9.25;62.85;97227.81;5010015;28;20457;-64
2023/11/07 03:13:51;;;;;;;1.93;1.20;;;7.40;92.20;;;9.18;62.90;97237.41;5011807;28;20487;-63
2023/11/07 03:16:18;;;;;;;1.00;0.80;;;7.30;91.60;;;9.12;63.09;97236.25;5011375;28;20057;-63
2023/11/07 03:18:46;;;;;;;2.77;1.23;;;7.20;92.00;;;9.09;63.12;97243.69;5011645;28;20557;-63
2023/11/07 03:21:14;;;;;;;2.97;1.23;;;7.20;92.50;;;9.02;63.14;97247.00;5009731;28;20056;-63
2023/11/07 03:23:42;;;;;;;1.97;1.33;;;7.10;92.50;;;8.95;63.14;97245.16;5010490;28;20038;-63
2023/11/07 03:26:10;;;;;;;1.60;0.90;;;7.00;93.40;;;8.91;62.93;97247.28;5009226;28;20056;-63
2023/11/07 03:28:38;;;;;;;1.33;1.20;;;6.90;92.70;;;8.79;63.40;97252.06;5011204;28;20411;-63
2023/11/07 03:31:05;;;;;;;1.13;0.70;;;6.90;93.30;;;8.79;63.59;97253.88;5011014;28;20053;-64
2023/11/07 03:33:33;;;;;;;2.50;1.00;;;6.90;93.80;;;8.81;63.51;97249.25;5011659;28;20418;-63
2023/11/07 03:36:01;;;;;;;1.33;1.10;;;7.00;92.80;;;8.73;63.65;97258.00;5011362;28;20053;-63
2023/11/07 03:38:29;;;;;;;2.73;1.03;;;6.90;92.60;;;8.80;63.66;97255.53;5010961;28;20056;-63
2023/11/07 03:40:56;;;;;;;2.73;1.40;;;7.00;93.30;;;8.81;63.73;97259.88;5010757;28;20046;-63
2023/11/07 03:43:24;;;;;;;4.43;1.23;;;7.10;92.00;;;8.81;63.65;97259.88;5009321;28;20061;-63
2023/11/07 03:45:51;;;;;;;1.53;1.30;;;7.00;92.20;;;8.82;63.40;97262.38;5009787;28;20494;-63
2023/11/07 03:48:19;;;;;;;2.37;1.27;;;7.00;91.70;;;8.80;63.44;97264.34;5010256;28;20050;-63
2023/11/07 03:50:47;;;;;;;2.17;1.20;;;7.00;92.30;;;8.82;63.39;97261.50;5014835;28;20049;-63
2023/11/07 03:53:14;;;;;;;3.00;1.23;;;7.00;92.10;;;8.77;63.46;97263.84;5015000;28;20499;-63
2023/11/07 03:55:42;;;;;;;2.27;1.00;;;7.00;92.30;;;8.74;63.56;97262.31;4997128;28;20061;-63
2023/11/07 03:58:09;;;;;;;2.27;1.13;;;6.90;92.20;;;8.69;63.50;97271.75;5013713;28;20046;-63
2023/11/07 04:00:37;;;;;;;1.60;1.03;;;6.90;92.30;;;8.62;63.76;97264.41;5015100;28;20049;-64
2023/11/07 04:03:05;;;;;;;1.33;0.90;;;6.80;92.30;;;8.61;63.77;97259.28;5014763;28;20038;-64
2023/11/07 04:05:33;;;;;;;3.67;1.20;;;6.80;93.20;;;8.56;63.92;97259.75;5015032;28;20045;-64
2023/11/07 04:08:00;;;;;;;1.43;1.00;;;6.80;93.30;;;8.60;63.98;97266.38;5013594;28;20053;-64
2023/11/07 04:10:28;;;;;;;3.03;1.00;;;6.80;93.10;;;8.62;63.95;97261.75;5014443;28;20045;-65
2023/11/07 04:12:56;;;;;;;2.00;1.17;;;6.90;93.40;;;8.61;63.84;97273.38;5014569;28;20544;-65
2023/11/07 04:15:24;;;;;;;2.73;1.17;;;6.90;93.60;;;8.65;63.86;97265.94;5014736;28;20069;-66
2023/11/07 04:17:52;;;;;;;1.13;0.90;;;6.90;92.40;;;8.60;63.62;97274.34;5013657;28;20050;-65
2023/11/07 04:20:22;;;;;;;1.00;0.90;;;6.90;93.10;;;8.58;63.92;97270.19;5014657;28;20073;-65
2023/11/07 04:22:51;;;;;;;3.90;1.17;;;6.80;92.70;;;8.59;64.20;97275.34;5010356;28;20049;-66
2023/11/07 04:25:19;;;;;;;1.50;1.00;;;6.90;93.50;;;8.56;64.17;97275.66;5013274;28;20525;-63
2023/11/07 04:27:47;;;;;;;2.23;1.07;;;6.80;93.80;;;8.57;64.19;97280.00;5014655;28;20038;-63
2023/11/07 04:30:16;;;;;;;1.67;0.87;;;6.80;93.70;;;8.58;64.43;97275.50;5013452;28;20042;-64
2023/11/07 04:32:44;;;;;;;3.40;0.90;;;6.90;94.20;;;8.61;64.52;97275.22;5012841;28;20057;-64
2023/11/07 04:35:12;;;;;;;1.23;1.00;;;6.90;94.20;;;8.70;64.50;97276.88;5014397;28;20053;-63
2023/11/07 04:37:40;;;;;;;2.47;1.13;;;7.00;93.20;;;8.77;64.41;97277.94;5014263;28;20046;-63
2023/11/07 04:40:08;;;;;;;2.07;1.20;;;7.10;93.60;;;8.83;64.33;97265.84;5014443;28;20046;-63
2023/11/07 04:42:36;;;;;;;0.87;0.83;;;7.20;92.70;;;8.87;64.17;97264.53;5013762;28;20046;-63
2023/11/07 04:45:07;;;;;;;1.27;1.10;;;7.20;92.00;;;8.92;64.08;97269.34;5014248;28;20073;-63
2023/11/07 04:47:34;;;;;;;3.80;1.20;;;7.20;92.20;;;8.96;63.76;97252.13;5013881;28;20067;-64
2023/11/07 04:50:04;;;;;;;1.43;0.97;;;7.20;91.90;;;9.01;63.61;97252.47;5014564;28;20034;-63
2023/11/07 04:52:35;;;;;;;2.30;1.50;;;7.30;92.00;;;9.02;63.71;97260.28;5013910;28;20049;-64
2023/11/07 04:55:02;;;;;;;3.60;1.97;;;7.20;91.10;;;8.99;63.54;97257.09;5013677;28;20045;-64
2023/11/07 04:57:30;;;;;;;4.83;1.70;;;7.10;91.70;;;8.98;63.39;97256.28;5013863;28;20426;-64
2023/11/07 04:59:58;;;;;;;3.63;1.90;;;7.10;91.80;;;8.96;63.44;97257.44;5012208;28;20045;-64
2023/11/07 05:02:25;;;;;;;6.23;2.70;;;7.10;91.80;;;8.95;63.28;97261.06;5012202;28;20058;-64
2023/11/07 05:04:53;;;;;;;10.63;4.47;;;7.10;91.60;;;8.92;63.76;97256.06;5013797;28;20410;-63
2023/11/07 05:07:23;;;;;;;10.00;3.90;;;7.00;92.40;;;8.93;63.27;97252.44;5012935;28;20057;-63
2023/11/07 05:09:55;;;;;;;9.97;4.00;;;7.00;92.20;;;8.91;63.32;97255.25;5013965;28;20042;-64
2023/11/07 05:12:23;;;;;;;10.40;3.97;;;7.00;92.50;;;8.89;63.37;97259.88;5013125;28;20045;-64
2023/11/07 05:14:51;;;;;;;10.40;4.90;;;7.00;92.60;;;8.86;63.25;97254.91;5013641;28;20490;-63
2023/11/07 05:17:20;;;;;;;11.70;5.57;;;7.00;92.40;;;8.85;63.44;97256.72;5013384;28;20077;-63
2023/11/07 05:19:48;;;;;;;11.63;5.10;;;7.00;92.10;;;8.82;63.53;97267.69;5013575;28;20049;-63
2023/11/07 05:22:16;;;;;;;8.53;3.97;;;6.90;92.50;;;8.83;63.63;97260.53;5013092;28;20042;-64
2023/11/07 05:24:43;;;;;;;6.80;3.90;;;7.00;92.80;;;8.85;63.34;97263.88;5013343;28;20517;-63
2023/11/07 05:27:11;;;;;;;5.83;2.40;;;7.00;92.80;;;8.86;63.36;97268.19;5013037;28;20430;-64
2023/11/07 05:29:39;;;;;;;7.07;3.93;;;7.10;92.10;;;8.80;63.32;97269.66;5013312;28;20038;-64
2023/11/07 05:32:07;;;;;;;3.50;2.07;;;7.00;92.40;;;8.84;63.38;97267.50;5013188;28;20029;-64
2023/11/07 05:34:39;;;;;;;4.40;2.93;;;7.00;92.10;;;8.90;63.43;97276.66;5013128;28;20056;-64
2023/11/07 05:37:06;;;;;;;6.03;3.33;;;7.00;91.70;;;8.88;63.36;97268.88;5013117;28;20042;-64
2023/11/07 05:39:34;;;;;;;3.63;1.90;;;7.00;91.10;;;8.87;63.60;97268.00;5013213;28;20050;-64
2023/11/07 05:42:06;;;;;;;2.50;1.63;;;7.10;92.30;;;8.88;63.28;97266.22;5013048;28;20041;-64
2023/11/07 05:44:34;;;;;;;2.53;1.53;;;7.10;91.70;;;8.90;63.39;97266.88;5013244;28;20431;-64
2023/11/07 05:47:03;;;;;;;2.10;1.03;;;7.10;92.00;;;8.92;63.46;97272.84;5013250;28;20045;-64
2023/11/07 05:49:30;;;;;;;4.63;1.20;;;7.10;91.90;;;8.95;63.33;97272.53;5012718;28;20046;-64
2023/11/07 05:51:58;;;;;;;2.00;1.40;;;7.10;91.30;;;8.93;63.21;97263.88;5012901;28;20411;-64
2023/11/07 05:54:26;;;;;;;2.87;1.37;;;7.10;91.00;;;8.94;63.19;97270.06;5013204;28;20046;-63
2023/11/07 05:56:53;;;;;;;3.73;1.50;;;7.10;90.70;;;8.96;63.39;97260.94;5013244;28;20048;-64
2023/11/07 05:59:21;;;;;;;2.10;1.50;;;7.20;91.20;;;9.02;63.28;97272.72;5013198;28;20042;-64
2023/11/07 06:01:48;;;;;;;1.73;1.63;;;7.30;90.90;;;9.07;63.20;97265.09;5011524;28;20042;-64
2023/11/07 06:04:36;;;;;;;1.90;1.57;;;7.30;90.10;;;9.09;63.21;97275.56;5012379;28;20049;-64
2023/11/07 06:07:03;;;;;;;2.80;1.60;;;7.40;89.90;;;9.11;63.31;97268.25;5007474;28;20045;-64
2023/11/07 06:09:31;;;;;;;2.27;1.13;;;7.40;89.60;;;9.17;63.11;97270.28;5012583;28;20042;-64
2023/11/07 06:11:59;;;;;;;1.93;1.50;;;7.50;90.10;;;9.19;63.35;97270.94;5011008;28;20056;-64
2023/11/07 06:14:27;;;;;;;1.43;1.00;;;7.60;89.20;;;9.27;63.05;97269.16;5012549;28;20111;-64
2023/11/07 06:16:55;;;;;;;4.10;1.10;;;7.60;89.00;;;9.34;63.21;97277.28;5011084;28;20186;-64
2023/11/07 06:19:23;;;;;;;2.43;0.90;;;7.70;88.90;;;9.40;62.90;97279.31;5012203;28;20046;-64
2023/11/07 06:21:51;;;;;;;3.97;1.40;;;7.80;88.20;;;9.43;63.00;97283.47;5010460;28;20046;-64
2023/11/07 06:24:18;;;;;;;1.57;1.00;;;7.80;87.60;;;9.49;62.85;97279.34;5012086;28;20042;-64
2023/11/07 06:26:46;;;;;;;2.67;1.13;;;7.90;87.80;;;9.55;62.77;97273.34;5011212;28;20041;-64
2023/11/07 06:29:14;;;;;;;2.47;1.10;;;8.00;87.90;;;9.62;62.68;97279.69;5012114;28;20045;-64
2023/11/07 06:31:45;;;;;;;1.40;1.10;;;8.00;87.40;;;9.67;62.59;97282.66;5011789;28;20487;-64
2023/11/07 06:34:16;;;;;;;1.17;1.00;;;8.00;86.60;;;9.72;62.38;97288.34;5012047;28;20414;-64
2023/11/07 06:36:45;;;;;;;1.97;0.90;;;8.10;86.90;;;9.77;62.35;97286.03;5012056;28;20049;-64
2023/11/07 06:39:15;;;;;;;3.30;1.20;;;8.10;86.30;;;9.81;62.12;97289.19;5010869;28;20053;-64
2023/11/07 06:41:43;;;;;;;2.37;0.90;;;8.20;86.20;;;9.78;62.15;97293.00;5011654;28;20538;-64
2023/11/07 06:44:12;;;;;;;4.20;1.23;;;8.20;85.30;;;9.82;62.03;97290.84;5011780;28;20049;-63
2023/11/07 06:46:43;;;;;;;1.40;1.10;;;8.10;85.40;;;9.84;61.87;97289.66;5011966;28;20101;-63
2023/11/07 06:49:11;;;;;;;3.43;1.00;;;8.20;84.80;;;9.81;61.75;97295.34;5010819;28;20057;-63
2023/11/07 06:51:39;;;;;;;2.07;0.97;;;8.10;84.50;;;9.86;61.94;97300.97;5011198;28;20121;-63
2023/11/07 06:54:08;;;;;;;3.43;1.13;;;8.20;85.40;;;9.88;61.55;97299.97;5011441;28;20057;-63
2023/11/07 06:56:37;;;;;;;1.97;0.90;;;8.20;84.80;;;9.95;61.66;97299.16;5011681;28;20041;-63
2023/11/07 06:59:05;;;;;;;2.07;1.40;;;8.30;85.10;;;9.98;61.50;97298.84;5011544;28;20055;-64
2023/11/07 07:01:32;;;;;;;1.20;0.97;;;8.40;84.70;;;9.98;61.57;97303.31;5010058;28;20073;-63
2023/11/07 07:04:00;;;;;;;3.10;1.20;;;8.40;84.30;;;10.01;61.54;97300.31;4994428;28;20049;-63
2023/11/07 07:06:28;;;;;;;1.83;1.13;;;8.40;84.40;;;10.01;61.37;97301.16;5010039;28;20050;-64
2023/11/07 07:08:56;;;;;;;1.93;1.30;;;8.40;84.10;;;10.05;61.05;97301.66;5011227;28;20414;-63
2023/11/07 07:11:24;;;;;;;1.10;0.87;;;8.40;84.20;;;10.05;61.07;97310.44;5011273;28;20049;-63
2023/11/07 07:13:52;;;;;;;4.10;1.20;;;8.40;83.80;;;10.04;61.08;97305.28;5011515;28;20220;-64
2023/11/07 07:16:23;;;;;;;1.57;1.20;;;8.40;83.80;;;10.02;61.00;97313.47;5011383;28;20050;-63
2023/11/07 07:18:51;;;;;;;1.17;1.03;;;8.30;84.00;;;9.93;60.95;97311.78;5003416;28;20357;-63
2023/11/07 07:21:21;;;;;;;1.80;1.30;;;8.30;83.50;;;9.94;60.69;97315.28;5010550;28;20072;-63
2023/11/07 07:23:49;;;;;;;1.67;1.10;;;8.20;83.70;;;9.92;60.84;97315.44;5007904;28;20431;-65
2023/11/07 07:26:17;;;;;;;3.23;1.20;;;8.20;84.50;;;9.92;60.75;97320.75;5011302;28;20042;-66
2023/11/07 07:28:44;;;;;;;2.50;1.10;;;8.20;84.90;;;9.85;60.90;97327.75;5010801;28;20050;-66
2023/11/07 07:31:16;;;;;;;2.70;1.23;;;8.20;84.00;;;9.83;61.09;97327.06;5010866;28;20046;-65
2023/11/07 07:34:09;;;;;;;3.20;1.50;;;8.20;84.20;;;9.82;60.90;97326.22;5011237;28;20049;-66
2023/11/07 07:36:43;;;;;;;2.63;1.30;;;8.10;85.00;;;9.86;61.03;97326.72;5011213;28;20060;-66
2023/11/07 07:39:31;;;;;;;2.38;1.00;;;8.10;84.50;;;9.85;60.77;97331.22;5010918;28;20056;-66
2023/11/07 07:42:09;;;;;;;1.83;1.07;;;8.10;84.40;;;9.83;61.02;97335.88;5003645;28;20057;-63
2023/11/07 07:44:38;;;;;;;5.50;2.40;;;8.10;84.60;;;9.81;60.95;97334.38;5011237;28;20402;-65
2023/11/07 07:47:07;;;;;;;7.50;3.40;;;8.10;84.80;;;9.83;61.03;97332.41;5010861;28;20045;-63
2023/11/07 07:49:36;;;;;;;3.30;1.50;;;8.10;85.20;;;9.81;61.21;97329.88;5009287;28;20042;-63
2023/11/07 07:52:09;;;;;;;3.23;1.30;;;8.10;85.30;;;9.80;61.28;97338.84;5009487;28;20064;-63
2023/11/07 07:54:38;;;;;;;2.65;1.13;;;8.10;85.70;;;9.81;61.31;97329.06;5010718;28;20046;-61
2023/11/07 07:57:09;;;;;;;2.40;1.20;;;8.10;86.00;;;9.84;61.41;97326.88;5009541;28;20049;-61
2023/11/07 07:59:40;;;;;;;2.57;1.23;;;8.10;86.00;;;9.89;61.30;97330.88;5009469;28;20050;-63
2023/11/07 08:02:09;;;;;;;1.73;1.20;;;8.20;85.30;;;9.95;61.30;97335.56;5010618;28;20495;-63
2023/11/07 08:04:37;;;;;;;1.87;1.13;;;8.30;85.70;;;9.95;61.23;97331.06;5010416;28;20533;-63
2023/11/07 08:07:05;;;;;;;3.40;1.53;;;8.30;85.80;;;10.02;61.62;97331.22;5010997;28;20038;-61
2023/11/07 08:09:33;;;;;;;1.37;1.03;;;8.40;86.00;;;10.06;61.56;97329.91;5009529;28;20525;-63
2023/11/07 08:12:00;;;;;;;3.37;1.30;;;8.40;85.60;;;10.14;61.40;97337.91;5010542;28;20045;-62
2023/11/07 08:14:30;;;;;;;2.20;1.33;;;8.50;85.50;;;10.22;61.38;97337.91;5010865;28;20052;-63
2023/11/07 08:16:58;;;;;;;1.77;1.30;;;8.60;85.00;;;10.29;61.43;97343.38;5002881;28;20049;-63
2023/11/07 08:19:25;;;;;;;4.23;1.10;;;8.60;84.60;;;10.31;61.48;97344.06;5010712;28;20049;-63
2023/11/07 08:21:53;;;;;;;4.50;1.00;;;8.70;84.90;;;10.37;61.13;97347.88;5010534;28;20053;-62
2023/11/07 08:24:21;;;;;;;0.93;0.87;;;8.80;85.00;;;10.42;61.13;97351.72;5010699;28;20498;-61
2023/11/07 08:26:48;;;;;;;3.47;1.30;;;8.80;85.10;;;10.49;61.14;97356.34;5010281;28;20041;-63
2023/11/07 08:29:16;;;;;;;1.43;1.00;;;8.90;84.80;;;10.52;61.22;97356.03;5009885;28;20050;-62
2023/11/07 08:31:43;;;;;;;2.60;1.03;;;8.90;84.70;;;10.56;61.45;97357.38;5010336;28;20498;-61
2023/11/07 08:34:11;;;;;;;1.90;1.20;;;9.00;84.70;;;10.59;61.14;97355.19;5010619;28;20050;-64
2023/11/07 08:36:39;;;;;;;3.03;0.93;;;9.00;85.00;;;10.63;61.31;97351.19;5013215;28;20077;-62
2023/11/07 08:39:28;;;;;;;2.20;1.10;;;9.00;84.90;;;10.69;61.44;97356.84;5014183;28;20050;-63
2023/11/07 08:41:56;;;;;;;1.00;0.90;;;9.10;85.30;;;10.73;61.04;97353.69;5012291;28;20033;-61
2023/11/07 08:44:23;;;;;;;2.77;1.00;;;9.10;84.80;;;10.77;61.07;97352.34;5012674;28;20054;-62
2023/11/07 08:46:51;;;;;;;2.10;0.90;;;9.20;84.20;;;10.82;60.90;97352.66;5014353;28;22282;-62
2023/11/07 08:49:19;;;;;;;1.60;1.20;;;9.30;83.70;;;10.86;60.71;97358.50;5014393;28;20041;-62
2023/11/07 08:51:51;;;;;;;1.63;1.30;;;9.30;83.80;;;10.87;61.12;97351.31;5013561;28;20392;-62
2023/11/07 08:54:20;;;;;;;1.80;1.07;;;9.40;83.80;;;10.90;61.32;97364.31;5014149;28;20419;-61
2023/11/07 08:56:49;;;;;;;2.63;1.07;;;9.40;84.50;;;10.87;61.18;97356.66;5013741;28;20395;-62
2023/11/07 08:59:20;;;;;;;2.03;0.90;;;9.30;85.40;;;10.89;61.50;97352.81;5011257;28;20075;-62
2023/11/07 09:01:49;;;;;;;1.67;0.90;;;9.30;85.40;;;10.89;61.51;97355.47;5009423;28;20045;-62
2023/11/07 09:04:17;;;;;;;2.57;1.53;;;9.30;86.10;;;10.95;61.67;97360.13;5011229;28;20050;-61
2023/11/07 09:06:45;;;;;;;2.20;0.90;;;9.40;86.30;;;11.06;61.46;97364.25;5012993;28;20426;-60
2023/11/07 09:09:16;;;;;;;1.77;1.00;;;9.50;86.00;;;11.17;62.04;97368.41;5012794;28;20057;-60
2023/11/07 09:11:45;;;;;;;0.90;0.80;;;9.70;86.80;;;11.27;61.79;97374.34;5010859;28;20045;-59
2023/11/07 09:14:16;;;;;;;1.27;0.93;;;9.80;86.00;;;11.31;61.47;97364.19;5012882;28;20046;-59
2023/11/07 09:16:46;;;;;;;1.67;0.83;;;9.80;85.70;;;11.37;61.61;97366.97;5012783;28;20046;-60
2023/11/07 09:19:14;;;;;;;2.80;0.93;;;9.90;84.60;;;11.40;61.15;97371.16;5011750;28;20050;-64
2023/11/07 09:21:43;;;;;;;5.17;1.20;;;10.00;83.40;;;11.44;61.31;97375.13;5013179;28;20068;-60
2023/11/07 09:24:10;;;;;;;3.30;1.07;;;10.10;83.80;;;11.47;61.34;97376.59;5013447;28;20034;-60
2023/11/07 09:26:38;;;;;;;1.03;0.80;;;10.10;83.00;;;11.51;61.09;97364.59;5013543;28;20042;-60
2023/11/07 09:29:05;;;;;;;2.07;0.87;;;10.10;82.30;;;11.50;60.12;97376.25;5012445;28;20391;-60
2023/11/07 09:31:33;;;;;;;1.30;0.87;;;10.20;80.30;;;11.47;59.87;97374.75;5012963;28;20622;-60
2023/11/07 09:34:01;;;;;;;1.03;0.93;;;10.20;79.30;;;11.53;60.25;97375.91;5013252;28;20092;-60
2023/11/07 09:36:30;;;;;;;1.90;0.90;;;10.20;78.60;;;11.58;60.31;97381.56;5013399;28;20054;-60
2023/11/07 09:38:59;;;;;;;1.23;0.90;;;10.20;79.70;;;11.56;59.47;97397.72;5012947;28;20067;-61
2023/11/07 09:41:27;;;;;;;1.83;1.20;;;10.20;78.40;;;11.57;59.51;97386.06;5012858;28;20380;-60
2023/11/07 09:43:55;;;;;;;1.13;0.77;;;10.30;78.20;;;11.64;59.65;97383.53;5013180;28;20048;-61
2023/11/07 09:46:23;;;;;;;0.90;0.65;;;10.30;78.10;;;11.67;59.35;97380.53;5011444;28;20414;-59
2023/11/07 09:48:53;;;;;;;1.50;0.53;;;10.40;78.10;;;11.76;58.92;97386.63;5011758;28;20053;-59
2023/11/07 09:51:22;;;;;;;0.90;0.90;;;10.50;77.60;;;11.78;58.83;97376.59;5012606;28;20049;-59
2023/11/07 09:53:51;;;;;;;1.93;1.10;;;10.50;77.40;;;11.81;58.74;97377.09;5011334;28;20410;-60
2023/11/07 09:56:21;;;;;;;2.80;1.30;;;10.50;76.70;;;11.89;58.71;97375.41;4991527;28;20058;-62
2023/11/07 09:58:53;;;;;;;1.13;0.88;;;10.60;75.80;;;11.95;58.34;97388.88;5010155;28;20041;-61
2023/11/07 10:01:21;;;;;;;0.80;0.77;;;10.60;76.10;;;11.86;57.89;97383.75;5012197;28;20046;-62
2023/11/07 10:03:51;;;;;;;1.70;1.00;;;10.60;74.10;;;11.89;57.82;97378.91;5012505;28;20056;-62
2023/11/07 10:06:19;;;;;;;0.97;0.87;;;10.60;75.60;;;11.95;57.76;97375.53;5011403;28;20046;-62
2023/11/07 10:08:48;;;;;;;1.17;0.90;;;10.60;75.80;;;12.01;58.23;97374.81;5012512;28;20406;-62
2023/11/07 10:11:15;;;;;;;1.53;0.80;;;10.60;76.50;;;12.09;57.83;97381.94;5012292;28;20060;-61
2023/11/07 10:14:01;;;;;;;1.13;0.77;;;10.70;76.40;;;12.06;57.63;97386.81;5011961;28;20056;-63
2023/11/07 10:16:40;;;;;;;1.27;0.90;;;10.70;74.10;;;11.97;57.43;97386.84;5012505;28;20049;-63
2023/11/07 10:19:13;;;;;;;1.70;0.80;;;10.60;75.70;;;11.98;57.42;97385.88;5004740;28;20046;-62
2023/11/07 10:21:42;;;;;;;0.70;0.68;;;10.60;75.50;;;11.91;57.00;97392.91;5012445;28;20436;-62
2023/11/07 10:24:09;;;;;;;0.77;0.70;;;10.60;73.60;;;11.85;57.59;97388.25;5009648;28;20049;-61
2023/11/07 10:27:00;;;;;;;0.70;0.60;;;10.60;75.10;;;11.83;56.67;97380.41;5009551;28;20037;-62
2023/11/07 10:29:30;;;;;;;1.10;0.77;;;10.60;73.10;;;11.85;57.18;97382.09;5009684;28;20049;-61
2023/11/07 10:32:08;;;;;;;1.60;0.90;;;10.60;74.00;;;11.90;57.08;97390.41;5002713;28;20137;-61
2023/11/07 10:34:36;;;;;;;0.87;0.87;;;10.60;74.20;;;11.83;56.82;97387.59;5011999;28;20050;-61
2023/11/07 10:37:06;;;;;;;1.00;0.70;;;10.60;73.50;;;11.89;56.80;97394.06;5004591;28;20053;-62